<?xml version="1.0" encoding="UTF-8" standalone="no" ?>
<gpx xmlns="http://www.topografix.com/GPX/1/1" xmlns:xsi="http://www.w3.org/2001/XMLSchema-instance" xsi:schemaLocation="http://www.topografix.com/GPX/1/1 http://www.topografix.com/GPX/1/1/gpx.xsd" version="1.1" creator="VisuGPX - https://www.visugpx.com">
  <metadata>
    <name>Sicaudais_CoteauxPoiriersEt2Boucles_20-22km</name>
    <desc><![CDATA[gnerando idor:12823711_13111116]]></desc>
  </metadata>
  <trk>
    <name><![CDATA[LaSicaudais_2boucles_22km-12823711]]></name>
    <extensions>
      <line xmlns="http://www.topografix.com/GPX/gpx_style/0/2">
        <color>00FF00</color>
        <width>4</width>
      </line>
    </extensions>
    <trkseg>
      <trkpt lat="47.18725" lon="-1.94761">
        <ele>29</ele>
        <time>2023-11-01T12:46:36Z</time>
      </trkpt>
      <trkpt lat="47.18681" lon="-1.9466">
        <ele>35</ele>
        <time>2023-11-01T12:48:25Z</time>
      </trkpt>
      <trkpt lat="47.1862" lon="-1.94538">
        <ele>40</ele>
        <time>2023-11-01T12:50:42Z</time>
      </trkpt>
      <trkpt lat="47.18565" lon="-1.94484">
        <ele>42</ele>
        <time>2023-11-01T12:52:10Z</time>
      </trkpt>
      <trkpt lat="47.18473" lon="-1.94278">
        <ele>47</ele>
        <time>2023-11-01T12:55:54Z</time>
      </trkpt>
      <trkpt lat="47.18443" lon="-1.94084">
        <ele>47</ele>
        <time>2023-11-01T12:58:54Z</time>
      </trkpt>
      <trkpt lat="47.18445" lon="-1.93961">
        <ele>43</ele>
        <time>2023-11-01T13:00:46Z</time>
      </trkpt>
      <trkpt lat="47.18423" lon="-1.93842">
        <ele>40</ele>
        <time>2023-11-01T13:02:38Z</time>
      </trkpt>
      <trkpt lat="47.18557" lon="-1.93715">
        <ele>37</ele>
        <time>2023-11-01T13:06:11Z</time>
      </trkpt>
      <trkpt lat="47.18676" lon="-1.93592">
        <ele>30</ele>
        <time>2023-11-01T13:09:25Z</time>
      </trkpt>
      <trkpt lat="47.18656" lon="-1.93372">
        <ele>37</ele>
        <time>2023-11-01T13:12:46Z</time>
      </trkpt>
      <trkpt lat="47.18566" lon="-1.93374">
        <ele>39</ele>
        <time>2023-11-01T13:14:46Z</time>
      </trkpt>
      <trkpt lat="47.18556" lon="-1.93402">
        <ele>38</ele>
        <time>2023-11-01T13:15:15Z</time>
      </trkpt>
      <trkpt lat="47.18515" lon="-1.93407">
        <ele>38</ele>
        <time>2023-11-01T13:16:10Z</time>
      </trkpt>
      <trkpt lat="47.18454" lon="-1.9302">
        <ele>45</ele>
        <time>2023-11-01T13:22:10Z</time>
      </trkpt>
      <trkpt lat="47.18491" lon="-1.92992">
        <ele>45</ele>
        <time>2023-11-01T13:23:05Z</time>
      </trkpt>
      <trkpt lat="47.18475" lon="-1.92939">
        <ele>45</ele>
        <time>2023-11-01T13:23:58Z</time>
      </trkpt>
      <trkpt lat="47.18388" lon="-1.92907">
        <ele>45</ele>
        <time>2023-11-01T13:25:58Z</time>
      </trkpt>
      <trkpt lat="47.18282" lon="-1.92811">
        <ele>44</ele>
        <time>2023-11-01T13:28:44Z</time>
      </trkpt>
      <trkpt lat="47.18277" lon="-1.92729">
        <ele>44</ele>
        <time>2023-11-01T13:29:58Z</time>
      </trkpt>
      <trkpt lat="47.18531" lon="-1.9258">
        <ele>39</ele>
        <time>2023-11-01T13:36:03Z</time>
      </trkpt>
      <trkpt lat="47.18683" lon="-1.92557">
        <ele>38</ele>
        <time>2023-11-01T13:39:27Z</time>
      </trkpt>
      <trkpt lat="47.19015" lon="-1.92408">
        <ele>35</ele>
        <time>2023-11-01T13:47:10Z</time>
      </trkpt>
      <trkpt lat="47.19215" lon="-1.92161">
        <ele>26</ele>
        <time>2023-11-01T13:52:59Z</time>
      </trkpt>
      <trkpt lat="47.19169" lon="-1.91915">
        <ele>24</ele>
        <time>2023-11-01T13:56:50Z</time>
      </trkpt>
      <trkpt lat="47.19279" lon="-1.91803">
        <ele>18</ele>
        <time>2023-11-01T13:59:49Z</time>
      </trkpt>
      <trkpt lat="47.19311" lon="-1.91646">
        <ele>15</ele>
        <time>2023-11-01T14:02:17Z</time>
      </trkpt>
      <trkpt lat="47.19405" lon="-1.9165">
        <ele>15</ele>
        <time>2023-11-01T14:04:23Z</time>
      </trkpt>
      <trkpt lat="47.19319" lon="-1.9143">
        <ele>12</ele>
        <time>2023-11-01T14:08:13Z</time>
      </trkpt>
      <trkpt lat="47.19235" lon="-1.91158">
        <ele>11</ele>
        <time>2023-11-01T14:12:44Z</time>
      </trkpt>
      <trkpt lat="47.1918" lon="-1.90997">
        <ele>11</ele>
        <time>2023-11-01T14:15:27Z</time>
      </trkpt>
      <trkpt lat="47.19048" lon="-1.91012">
        <ele>19</ele>
        <time>2023-11-01T14:18:24Z</time>
      </trkpt>
      <trkpt lat="47.18913" lon="-1.91042">
        <ele>31</ele>
        <time>2023-11-01T14:21:26Z</time>
      </trkpt>
      <trkpt lat="47.18918" lon="-1.90915">
        <ele>30</ele>
        <time>2023-11-01T14:23:22Z</time>
      </trkpt>
      <trkpt lat="47.18809" lon="-1.90896">
        <ele>33</ele>
        <time>2023-11-01T14:25:48Z</time>
      </trkpt>
      <trkpt lat="47.18665" lon="-1.90743">
        <ele>37</ele>
        <time>2023-11-01T14:29:45Z</time>
      </trkpt>
      <trkpt lat="47.1851" lon="-1.90579">
        <ele>42</ele>
        <time>2023-11-01T14:34:00Z</time>
      </trkpt>
      <trkpt lat="47.18439" lon="-1.90471">
        <ele>45</ele>
        <time>2023-11-01T14:36:16Z</time>
      </trkpt>
      <trkpt lat="47.18346" lon="-1.90502">
        <ele>46</ele>
        <time>2023-11-01T14:38:23Z</time>
      </trkpt>
      <trkpt lat="47.18287" lon="-1.90572">
        <ele>48</ele>
        <time>2023-11-01T14:40:05Z</time>
      </trkpt>
      <trkpt lat="47.1818" lon="-1.90614">
        <ele>52</ele>
        <time>2023-11-01T14:42:32Z</time>
      </trkpt>
      <trkpt lat="47.18071" lon="-1.90665">
        <ele>52</ele>
        <time>2023-11-01T14:45:05Z</time>
      </trkpt>
      <trkpt lat="47.17993" lon="-1.90762">
        <ele>52</ele>
        <time>2023-11-01T14:47:21Z</time>
      </trkpt>
      <trkpt lat="47.18015" lon="-1.90793">
        <ele>51</ele>
        <time>2023-11-01T14:48:02Z</time>
      </trkpt>
      <trkpt lat="47.18143" lon="-1.90885">
        <ele>45</ele>
        <time>2023-11-01T14:51:12Z</time>
      </trkpt>
      <trkpt lat="47.18241" lon="-1.90978">
        <ele>36</ele>
        <time>2023-11-01T14:53:48Z</time>
      </trkpt>
      <trkpt lat="47.18233" lon="-1.91002">
        <ele>36</ele>
        <time>2023-11-01T14:54:12Z</time>
      </trkpt>
      <trkpt lat="47.18127" lon="-1.90952">
        <ele>44</ele>
        <time>2023-11-01T14:56:40Z</time>
      </trkpt>
      <trkpt lat="47.18066" lon="-1.91232">
        <ele>42</ele>
        <time>2023-11-01T15:01:07Z</time>
      </trkpt>
      <trkpt lat="47.1796" lon="-1.91118">
        <ele>44</ele>
        <time>2023-11-01T15:04:02Z</time>
      </trkpt>
      <trkpt lat="47.17831" lon="-1.91282">
        <ele>34</ele>
        <time>2023-11-01T15:07:50Z</time>
      </trkpt>
      <trkpt lat="47.17627" lon="-1.91216">
        <ele>44</ele>
        <time>2023-11-01T15:12:29Z</time>
      </trkpt>
      <trkpt lat="47.17619" lon="-1.91128">
        <ele>47</ele>
        <time>2023-11-01T15:13:49Z</time>
      </trkpt>
      <trkpt lat="47.17592" lon="-1.91043">
        <ele>50</ele>
        <time>2023-11-01T15:15:14Z</time>
      </trkpt>
      <trkpt lat="47.1757" lon="-1.90952">
        <ele>52</ele>
        <time>2023-11-01T15:16:42Z</time>
      </trkpt>
      <trkpt lat="47.17536" lon="-1.90991">
        <ele>50</ele>
        <time>2023-11-01T15:17:39Z</time>
      </trkpt>
      <trkpt lat="47.17457" lon="-1.90986">
        <ele>52</ele>
        <time>2023-11-01T15:19:25Z</time>
      </trkpt>
      <trkpt lat="47.17421" lon="-1.91082">
        <ele>53</ele>
        <time>2023-11-01T15:21:04Z</time>
      </trkpt>
      <trkpt lat="47.17273" lon="-1.91103">
        <ele>55</ele>
        <time>2023-11-01T15:24:23Z</time>
      </trkpt>
      <trkpt lat="47.17346" lon="-1.91267">
        <ele>51</ele>
        <time>2023-11-01T15:27:21Z</time>
      </trkpt>
      <trkpt lat="47.17378" lon="-1.91493">
        <ele>47</ele>
        <time>2023-11-01T15:30:50Z</time>
      </trkpt>
      <trkpt lat="47.17408" lon="-1.91532">
        <ele>45</ele>
        <time>2023-11-01T15:31:43Z</time>
      </trkpt>
      <trkpt lat="47.17412" lon="-1.91685">
        <ele>40</ele>
        <time>2023-11-01T15:34:02Z</time>
      </trkpt>
      <trkpt lat="47.17368" lon="-1.91697">
        <ele>42</ele>
        <time>2023-11-01T15:35:02Z</time>
      </trkpt>
      <trkpt lat="47.17348" lon="-1.91783">
        <ele>44</ele>
        <time>2023-11-01T15:36:25Z</time>
      </trkpt>
      <trkpt lat="47.17317" lon="-1.91787">
        <ele>45</ele>
        <time>2023-11-01T15:37:06Z</time>
      </trkpt>
      <trkpt lat="47.17309" lon="-1.91949">
        <ele>46</ele>
        <time>2023-11-01T15:39:33Z</time>
      </trkpt>
      <trkpt lat="47.17343" lon="-1.92097">
        <ele>42</ele>
        <time>2023-11-01T15:41:55Z</time>
      </trkpt>
      <trkpt lat="47.17308" lon="-1.92161">
        <ele>43</ele>
        <time>2023-11-01T15:43:10Z</time>
      </trkpt>
      <trkpt lat="47.17438" lon="-1.92412">
        <ele>45</ele>
        <time>2023-11-01T15:47:56Z</time>
      </trkpt>
      <trkpt lat="47.17283" lon="-1.92707">
        <ele>47</ele>
        <time>2023-11-01T15:53:34Z</time>
      </trkpt>
      <trkpt lat="47.17224" lon="-1.92883">
        <ele>50</ele>
        <time>2023-11-01T15:56:32Z</time>
      </trkpt>
      <trkpt lat="47.17295" lon="-1.93025">
        <ele>54</ele>
        <time>2023-11-01T15:59:12Z</time>
      </trkpt>
      <trkpt lat="47.17318" lon="-1.93181">
        <ele>54</ele>
        <time>2023-11-01T16:01:37Z</time>
      </trkpt>
      <trkpt lat="47.17355" lon="-1.93514">
        <ele>48</ele>
        <time>2023-11-01T16:06:43Z</time>
      </trkpt>
      <trkpt lat="47.17446" lon="-1.93732">
        <ele>43</ele>
        <time>2023-11-01T16:10:35Z</time>
      </trkpt>
      <trkpt lat="47.17493" lon="-1.93835">
        <ele>40</ele>
        <time>2023-11-01T16:12:28Z</time>
      </trkpt>
      <trkpt lat="47.17521" lon="-1.94174">
        <ele>47</ele>
        <time>2023-11-01T16:17:37Z</time>
      </trkpt>
      <trkpt lat="47.17748" lon="-1.94181">
        <ele>45</ele>
        <time>2023-11-01T16:22:40Z</time>
      </trkpt>
      <trkpt lat="47.18036" lon="-1.94193">
        <ele>45</ele>
        <time>2023-11-01T16:29:05Z</time>
      </trkpt>
      <trkpt lat="47.18168" lon="-1.94221">
        <ele>43</ele>
        <time>2023-11-01T16:32:03Z</time>
      </trkpt>
      <trkpt lat="47.18276" lon="-1.94306">
        <ele>48</ele>
        <time>2023-11-01T16:34:46Z</time>
      </trkpt>
      <trkpt lat="47.1841" lon="-1.94448">
        <ele>46</ele>
        <time>2023-11-01T16:38:27Z</time>
      </trkpt>
      <trkpt lat="47.18534" lon="-1.94478">
        <ele>43</ele>
        <time>2023-11-01T16:41:14Z</time>
      </trkpt>
      <trkpt lat="47.18589" lon="-1.94514">
        <ele>41</ele>
        <time>2023-11-01T16:42:35Z</time>
      </trkpt>
      <trkpt lat="47.18652" lon="-1.94603">
        <ele>38</ele>
        <time>2023-11-01T16:44:31Z</time>
      </trkpt>
      <trkpt lat="47.18734" lon="-1.94747">
        <ele>28</ele>
        <time>2023-11-01T16:47:21Z</time>
      </trkpt>
      <trkpt lat="47.18778" lon="-1.94796">
        <ele>26</ele>
        <time>2023-11-01T16:48:35Z</time>
      </trkpt>
      <trkpt lat="47.18814" lon="-1.94801">
        <ele>24</ele>
        <time>2023-11-01T16:49:23Z</time>
      </trkpt>
      <trkpt lat="47.18847" lon="-1.94777">
        <ele>23</ele>
        <time>2023-11-01T16:50:13Z</time>
      </trkpt>
      <trkpt lat="47.18884" lon="-1.94768">
        <ele>21</ele>
        <time>2023-11-01T16:51:03Z</time>
      </trkpt>
      <trkpt lat="47.18959" lon="-1.94829">
        <ele>20</ele>
        <time>2023-11-01T16:52:57Z</time>
      </trkpt>
      <trkpt lat="47.19082" lon="-1.94722">
        <ele>19</ele>
        <time>2023-11-01T16:56:08Z</time>
      </trkpt>
      <trkpt lat="47.19286" lon="-1.94727">
        <ele>18</ele>
        <time>2023-11-01T17:00:40Z</time>
      </trkpt>
      <trkpt lat="47.19318" lon="-1.94967">
        <ele>18</ele>
        <time>2023-11-01T17:04:22Z</time>
      </trkpt>
      <trkpt lat="47.19651" lon="-1.9577">
        <ele>23</ele>
        <time>2023-11-01T17:18:35Z</time>
      </trkpt>
      <trkpt lat="47.19525" lon="-1.9592">
        <ele>26</ele>
        <time>2023-11-01T17:22:11Z</time>
      </trkpt>
      <trkpt lat="47.1954" lon="-1.96224">
        <ele>30</ele>
        <time>2023-11-01T17:26:47Z</time>
      </trkpt>
      <trkpt lat="47.19479" lon="-1.96199">
        <ele>28</ele>
        <time>2023-11-01T17:28:12Z</time>
      </trkpt>
      <trkpt lat="47.19458" lon="-1.9637">
        <ele>29</ele>
        <time>2023-11-01T17:30:49Z</time>
      </trkpt>
      <trkpt lat="47.19569" lon="-1.9692">
        <ele>33</ele>
        <time>2023-11-01T17:39:30Z</time>
      </trkpt>
      <trkpt lat="47.19245" lon="-1.96993">
        <ele>35</ele>
        <time>2023-11-01T17:46:47Z</time>
      </trkpt>
      <trkpt lat="47.19142" lon="-1.97046">
        <ele>36</ele>
        <time>2023-11-01T17:49:13Z</time>
      </trkpt>
      <trkpt lat="47.19186" lon="-1.97364">
        <ele>35</ele>
        <time>2023-11-01T17:54:07Z</time>
      </trkpt>
      <trkpt lat="47.19221" lon="-1.97691">
        <ele>34</ele>
        <time>2023-11-01T17:59:07Z</time>
      </trkpt>
      <trkpt lat="47.1935" lon="-1.98147">
        <ele>35</ele>
        <time>2023-11-01T18:06:35Z</time>
      </trkpt>
      <trkpt lat="47.19353" lon="-1.98314">
        <ele>37</ele>
        <time>2023-11-01T18:09:07Z</time>
      </trkpt>
      <trkpt lat="47.19486" lon="-1.98573">
        <ele>30</ele>
        <time>2023-11-01T18:14:01Z</time>
      </trkpt>
      <trkpt lat="47.19499" lon="-1.98553">
        <ele>30</ele>
        <time>2023-11-01T18:14:26Z</time>
      </trkpt>
      <trkpt lat="47.19532" lon="-1.98551">
        <ele>30</ele>
        <time>2023-11-01T18:15:10Z</time>
      </trkpt>
      <trkpt lat="47.19565" lon="-1.98449">
        <ele>28</ele>
        <time>2023-11-01T18:16:53Z</time>
      </trkpt>
      <trkpt lat="47.19654" lon="-1.98357">
        <ele>28</ele>
        <time>2023-11-01T18:19:18Z</time>
      </trkpt>
      <trkpt lat="47.19721" lon="-1.98241">
        <ele>26</ele>
        <time>2023-11-01T18:21:36Z</time>
      </trkpt>
      <trkpt lat="47.19855" lon="-1.98151">
        <ele>30</ele>
        <time>2023-11-01T18:24:52Z</time>
      </trkpt>
      <trkpt lat="47.20021" lon="-1.97875">
        <ele>28</ele>
        <time>2023-11-01T18:30:26Z</time>
      </trkpt>
      <trkpt lat="47.20152" lon="-1.97911">
        <ele>35</ele>
        <time>2023-11-01T18:33:24Z</time>
      </trkpt>
      <trkpt lat="47.20195" lon="-1.97669">
        <ele>34</ele>
        <time>2023-11-01T18:37:11Z</time>
      </trkpt>
      <trkpt lat="47.20285" lon="-1.97438">
        <ele>28</ele>
        <time>2023-11-01T18:41:13Z</time>
      </trkpt>
      <trkpt lat="47.20318" lon="-1.97156">
        <ele>19</ele>
        <time>2023-11-01T18:45:32Z</time>
      </trkpt>
      <trkpt lat="47.20423" lon="-1.97018">
        <ele>18</ele>
        <time>2023-11-01T18:48:40Z</time>
      </trkpt>
      <trkpt lat="47.2049" lon="-1.96838">
        <ele>21</ele>
        <time>2023-11-01T18:51:46Z</time>
      </trkpt>
      <trkpt lat="47.20534" lon="-1.96641">
        <ele>18</ele>
        <time>2023-11-01T18:54:54Z</time>
      </trkpt>
      <trkpt lat="47.20473" lon="-1.96315">
        <ele>14</ele>
        <time>2023-11-01T19:00:00Z</time>
      </trkpt>
      <trkpt lat="47.20421" lon="-1.96267">
        <ele>12</ele>
        <time>2023-11-01T19:01:22Z</time>
      </trkpt>
      <trkpt lat="47.20356" lon="-1.96282">
        <ele>12</ele>
        <time>2023-11-01T19:02:50Z</time>
      </trkpt>
      <trkpt lat="47.20339" lon="-1.96222">
        <ele>10</ele>
        <time>2023-11-01T19:03:49Z</time>
      </trkpt>
      <trkpt lat="47.20371" lon="-1.96148">
        <ele>10</ele>
        <time>2023-11-01T19:05:09Z</time>
      </trkpt>
      <trkpt lat="47.20365" lon="-1.961">
        <ele>10</ele>
        <time>2023-11-01T19:05:53Z</time>
      </trkpt>
      <trkpt lat="47.20354" lon="-1.9591">
        <ele>13</ele>
        <time>2023-11-01T19:08:46Z</time>
      </trkpt>
      <trkpt lat="47.2038" lon="-1.95731">
        <ele>14</ele>
        <time>2023-11-01T19:11:32Z</time>
      </trkpt>
      <trkpt lat="47.20368" lon="-1.95531">
        <ele>14</ele>
        <time>2023-11-01T19:14:34Z</time>
      </trkpt>
      <trkpt lat="47.20403" lon="-1.95036">
        <ele>7</ele>
        <time>2023-11-01T19:22:05Z</time>
      </trkpt>
      <trkpt lat="47.20363" lon="-1.94824">
        <ele>12</ele>
        <time>2023-11-01T19:25:24Z</time>
      </trkpt>
      <trkpt lat="47.20222" lon="-1.94409">
        <ele>17</ele>
        <time>2023-11-01T19:32:25Z</time>
      </trkpt>
      <trkpt lat="47.19996" lon="-1.9441">
        <ele>16</ele>
        <time>2023-11-01T19:37:27Z</time>
      </trkpt>
      <trkpt lat="47.1988" lon="-1.94456">
        <ele>18</ele>
        <time>2023-11-01T19:40:07Z</time>
      </trkpt>
      <trkpt lat="47.19593" lon="-1.94646">
        <ele>23</ele>
        <time>2023-11-01T19:47:07Z</time>
      </trkpt>
      <trkpt lat="47.19385" lon="-1.94705">
        <ele>18</ele>
        <time>2023-11-01T19:51:50Z</time>
      </trkpt>
      <trkpt lat="47.19068" lon="-1.94725">
        <ele>19</ele>
        <time>2023-11-01T19:58:53Z</time>
      </trkpt>
      <trkpt lat="47.18949" lon="-1.94827">
        <ele>21</ele>
        <time>2023-11-01T20:01:57Z</time>
      </trkpt>
      <trkpt lat="47.18863" lon="-1.94766">
        <ele>22</ele>
        <time>2023-11-01T20:04:04Z</time>
      </trkpt>
      <trkpt lat="47.1879" lon="-1.94801">
        <ele>25</ele>
        <time>2023-11-01T20:05:47Z</time>
      </trkpt>
      <trkpt lat="47.18747" lon="-1.94764">
        <ele>27</ele>
        <time>2023-11-01T20:06:53Z</time>
      </trkpt>
    </trkseg>
  </trk>
  <trk>
    <name><![CDATA[Sicaudais_CoteauxPoirier_20km-13111116]]></name>
    <extensions>
      <line xmlns="http://www.topografix.com/GPX/gpx_style/0/2">
        <color>FF0000</color>
        <width>4</width>
      </line>
    </extensions>
    <trkseg>
      <trkpt lat="47.18738" lon="-1.94763">
        <ele>28</ele>
        <time>2023-11-01T12:46:21Z</time>
      </trkpt>
      <trkpt lat="47.18626" lon="-1.94542">
        <ele>39</ele>
        <time>2023-11-01T12:50:31Z</time>
      </trkpt>
      <trkpt lat="47.18547" lon="-1.94448">
        <ele>43</ele>
        <time>2023-11-01T12:52:47Z</time>
      </trkpt>
      <trkpt lat="47.18542" lon="-1.9442">
        <ele>43</ele>
        <time>2023-11-01T12:53:13Z</time>
      </trkpt>
      <trkpt lat="47.18531" lon="-1.94396">
        <ele>44</ele>
        <time>2023-11-01T12:53:39Z</time>
      </trkpt>
      <trkpt lat="47.18521" lon="-1.94367">
        <ele>44</ele>
        <time>2023-11-01T12:54:09Z</time>
      </trkpt>
      <trkpt lat="47.18511" lon="-1.94339">
        <ele>44</ele>
        <time>2023-11-01T12:54:37Z</time>
      </trkpt>
      <trkpt lat="47.18484" lon="-1.94288">
        <ele>47</ele>
        <time>2023-11-01T12:55:36Z</time>
      </trkpt>
      <trkpt lat="47.1847" lon="-1.94262">
        <ele>47</ele>
        <time>2023-11-01T12:56:06Z</time>
      </trkpt>
      <trkpt lat="47.18458" lon="-1.94234">
        <ele>48</ele>
        <time>2023-11-01T12:56:36Z</time>
      </trkpt>
      <trkpt lat="47.18448" lon="-1.94212">
        <ele>48</ele>
        <time>2023-11-01T12:57:00Z</time>
      </trkpt>
      <trkpt lat="47.18446" lon="-1.94184">
        <ele>48</ele>
        <time>2023-11-01T12:57:26Z</time>
      </trkpt>
      <trkpt lat="47.18445" lon="-1.94157">
        <ele>48</ele>
        <time>2023-11-01T12:57:50Z</time>
      </trkpt>
      <trkpt lat="47.18444" lon="-1.94121">
        <ele>47</ele>
        <time>2023-11-01T12:58:23Z</time>
      </trkpt>
      <trkpt lat="47.18442" lon="-1.9409">
        <ele>47</ele>
        <time>2023-11-01T12:58:51Z</time>
      </trkpt>
      <trkpt lat="47.18441" lon="-1.94063">
        <ele>46</ele>
        <time>2023-11-01T12:59:16Z</time>
      </trkpt>
      <trkpt lat="47.18449" lon="-1.94037">
        <ele>45</ele>
        <time>2023-11-01T12:59:41Z</time>
      </trkpt>
      <trkpt lat="47.18456" lon="-1.94005">
        <ele>44</ele>
        <time>2023-11-01T13:00:12Z</time>
      </trkpt>
      <trkpt lat="47.18449" lon="-1.93981">
        <ele>44</ele>
        <time>2023-11-01T13:00:36Z</time>
      </trkpt>
      <trkpt lat="47.18437" lon="-1.9395">
        <ele>43</ele>
        <time>2023-11-01T13:01:08Z</time>
      </trkpt>
      <trkpt lat="47.18428" lon="-1.93918">
        <ele>43</ele>
        <time>2023-11-01T13:01:39Z</time>
      </trkpt>
      <trkpt lat="47.18423" lon="-1.93884">
        <ele>41</ele>
        <time>2023-11-01T13:02:11Z</time>
      </trkpt>
      <trkpt lat="47.18423" lon="-1.9385">
        <ele>40</ele>
        <time>2023-11-01T13:02:42Z</time>
      </trkpt>
      <trkpt lat="47.18429" lon="-1.93824">
        <ele>39</ele>
        <time>2023-11-01T13:03:07Z</time>
      </trkpt>
      <trkpt lat="47.18446" lon="-1.93801">
        <ele>39</ele>
        <time>2023-11-01T13:03:37Z</time>
      </trkpt>
      <trkpt lat="47.18465" lon="-1.93778">
        <ele>39</ele>
        <time>2023-11-01T13:04:10Z</time>
      </trkpt>
      <trkpt lat="47.18484" lon="-1.93757">
        <ele>39</ele>
        <time>2023-11-01T13:04:42Z</time>
      </trkpt>
      <trkpt lat="47.18503" lon="-1.93739">
        <ele>39</ele>
        <time>2023-11-01T13:05:12Z</time>
      </trkpt>
      <trkpt lat="47.18524" lon="-1.93725">
        <ele>38</ele>
        <time>2023-11-01T13:05:43Z</time>
      </trkpt>
      <trkpt lat="47.18543" lon="-1.93716">
        <ele>38</ele>
        <time>2023-11-01T13:06:10Z</time>
      </trkpt>
      <trkpt lat="47.18563" lon="-1.93702">
        <ele>37</ele>
        <time>2023-11-01T13:06:39Z</time>
      </trkpt>
      <trkpt lat="47.18582" lon="-1.93693">
        <ele>36</ele>
        <time>2023-11-01T13:07:06Z</time>
      </trkpt>
      <trkpt lat="47.18602" lon="-1.93686">
        <ele>36</ele>
        <time>2023-11-01T13:07:33Z</time>
      </trkpt>
      <trkpt lat="47.18614" lon="-1.93665">
        <ele>35</ele>
        <time>2023-11-01T13:07:58Z</time>
      </trkpt>
      <trkpt lat="47.18631" lon="-1.93644">
        <ele>33</ele>
        <time>2023-11-01T13:08:28Z</time>
      </trkpt>
      <trkpt lat="47.18647" lon="-1.9363">
        <ele>32</ele>
        <time>2023-11-01T13:08:53Z</time>
      </trkpt>
      <trkpt lat="47.18666" lon="-1.93614">
        <ele>31</ele>
        <time>2023-11-01T13:09:22Z</time>
      </trkpt>
      <trkpt lat="47.18673" lon="-1.93584">
        <ele>30</ele>
        <time>2023-11-01T13:09:51Z</time>
      </trkpt>
      <trkpt lat="47.18675" lon="-1.93553">
        <ele>31</ele>
        <time>2023-11-01T13:10:19Z</time>
      </trkpt>
      <trkpt lat="47.18682" lon="-1.93527">
        <ele>31</ele>
        <time>2023-11-01T13:10:44Z</time>
      </trkpt>
      <trkpt lat="47.1868" lon="-1.93498">
        <ele>32</ele>
        <time>2023-11-01T13:11:11Z</time>
      </trkpt>
      <trkpt lat="47.18672" lon="-1.93474">
        <ele>33</ele>
        <time>2023-11-01T13:11:35Z</time>
      </trkpt>
      <trkpt lat="47.18659" lon="-1.93449">
        <ele>34</ele>
        <time>2023-11-01T13:12:03Z</time>
      </trkpt>
      <trkpt lat="47.18651" lon="-1.93424">
        <ele>35</ele>
        <time>2023-11-01T13:12:28Z</time>
      </trkpt>
      <trkpt lat="47.1865" lon="-1.93397">
        <ele>36</ele>
        <time>2023-11-01T13:12:53Z</time>
      </trkpt>
      <trkpt lat="47.1865" lon="-1.93367">
        <ele>37</ele>
        <time>2023-11-01T13:13:20Z</time>
      </trkpt>
      <trkpt lat="47.18629" lon="-1.93365">
        <ele>38</ele>
        <time>2023-11-01T13:13:48Z</time>
      </trkpt>
      <trkpt lat="47.18608" lon="-1.9337">
        <ele>38</ele>
        <time>2023-11-01T13:14:17Z</time>
      </trkpt>
      <trkpt lat="47.18586" lon="-1.93371">
        <ele>39</ele>
        <time>2023-11-01T13:14:46Z</time>
      </trkpt>
      <trkpt lat="47.18567" lon="-1.93373">
        <ele>39</ele>
        <time>2023-11-01T13:15:11Z</time>
      </trkpt>
      <trkpt lat="47.18558" lon="-1.93397">
        <ele>39</ele>
        <time>2023-11-01T13:15:36Z</time>
      </trkpt>
      <trkpt lat="47.18535" lon="-1.93405">
        <ele>38</ele>
        <time>2023-11-01T13:16:08Z</time>
      </trkpt>
      <trkpt lat="47.18515" lon="-1.93408">
        <ele>38</ele>
        <time>2023-11-01T13:16:35Z</time>
      </trkpt>
      <trkpt lat="47.18503" lon="-1.93346">
        <ele>41</ele>
        <time>2023-11-01T13:17:33Z</time>
      </trkpt>
      <trkpt lat="47.18499" lon="-1.93317">
        <ele>41</ele>
        <time>2023-11-01T13:18:00Z</time>
      </trkpt>
      <trkpt lat="47.185" lon="-1.93284">
        <ele>41</ele>
        <time>2023-11-01T13:18:30Z</time>
      </trkpt>
      <trkpt lat="47.185" lon="-1.9325">
        <ele>41</ele>
        <time>2023-11-01T13:19:01Z</time>
      </trkpt>
      <trkpt lat="47.18494" lon="-1.93218">
        <ele>41</ele>
        <time>2023-11-01T13:19:31Z</time>
      </trkpt>
      <trkpt lat="47.18479" lon="-1.93158">
        <ele>42</ele>
        <time>2023-11-01T13:20:29Z</time>
      </trkpt>
      <trkpt lat="47.18472" lon="-1.93129">
        <ele>43</ele>
        <time>2023-11-01T13:20:57Z</time>
      </trkpt>
      <trkpt lat="47.18471" lon="-1.93101">
        <ele>43</ele>
        <time>2023-11-01T13:21:22Z</time>
      </trkpt>
      <trkpt lat="47.18466" lon="-1.93072">
        <ele>44</ele>
        <time>2023-11-01T13:21:49Z</time>
      </trkpt>
      <trkpt lat="47.18458" lon="-1.93045">
        <ele>44</ele>
        <time>2023-11-01T13:22:16Z</time>
      </trkpt>
      <trkpt lat="47.18454" lon="-1.93019">
        <ele>45</ele>
        <time>2023-11-01T13:22:40Z</time>
      </trkpt>
      <trkpt lat="47.18469" lon="-1.92994">
        <ele>45</ele>
        <time>2023-11-01T13:23:10Z</time>
      </trkpt>
      <trkpt lat="47.18484" lon="-1.92976">
        <ele>45</ele>
        <time>2023-11-01T13:23:36Z</time>
      </trkpt>
      <trkpt lat="47.18473" lon="-1.9295">
        <ele>45</ele>
        <time>2023-11-01T13:24:04Z</time>
      </trkpt>
      <trkpt lat="47.18453" lon="-1.92941">
        <ele>46</ele>
        <time>2023-11-01T13:24:32Z</time>
      </trkpt>
      <trkpt lat="47.18434" lon="-1.92935">
        <ele>46</ele>
        <time>2023-11-01T13:24:58Z</time>
      </trkpt>
      <trkpt lat="47.18412" lon="-1.92926">
        <ele>46</ele>
        <time>2023-11-01T13:25:28Z</time>
      </trkpt>
      <trkpt lat="47.18391" lon="-1.92912">
        <ele>45</ele>
        <time>2023-11-01T13:25:59Z</time>
      </trkpt>
      <trkpt lat="47.18371" lon="-1.92895">
        <ele>45</ele>
        <time>2023-11-01T13:26:30Z</time>
      </trkpt>
      <trkpt lat="47.18354" lon="-1.92883">
        <ele>44</ele>
        <time>2023-11-01T13:26:55Z</time>
      </trkpt>
      <trkpt lat="47.18334" lon="-1.92867">
        <ele>44</ele>
        <time>2023-11-01T13:27:25Z</time>
      </trkpt>
      <trkpt lat="47.18314" lon="-1.92852">
        <ele>44</ele>
        <time>2023-11-01T13:27:55Z</time>
      </trkpt>
      <trkpt lat="47.18296" lon="-1.92831">
        <ele>44</ele>
        <time>2023-11-01T13:28:26Z</time>
      </trkpt>
      <trkpt lat="47.18277" lon="-1.92815">
        <ele>44</ele>
        <time>2023-11-01T13:28:55Z</time>
      </trkpt>
      <trkpt lat="47.18267" lon="-1.92783">
        <ele>44</ele>
        <time>2023-11-01T13:29:27Z</time>
      </trkpt>
      <trkpt lat="47.18257" lon="-1.92753">
        <ele>44</ele>
        <time>2023-11-01T13:29:58Z</time>
      </trkpt>
      <trkpt lat="47.18268" lon="-1.92729">
        <ele>44</ele>
        <time>2023-11-01T13:30:24Z</time>
      </trkpt>
      <trkpt lat="47.18288" lon="-1.92718">
        <ele>44</ele>
        <time>2023-11-01T13:30:52Z</time>
      </trkpt>
      <trkpt lat="47.1831" lon="-1.92707">
        <ele>43</ele>
        <time>2023-11-01T13:31:23Z</time>
      </trkpt>
      <trkpt lat="47.18332" lon="-1.92698">
        <ele>43</ele>
        <time>2023-11-01T13:31:54Z</time>
      </trkpt>
      <trkpt lat="47.18353" lon="-1.92687">
        <ele>43</ele>
        <time>2023-11-01T13:32:24Z</time>
      </trkpt>
      <trkpt lat="47.18375" lon="-1.92678">
        <ele>42</ele>
        <time>2023-11-01T13:32:54Z</time>
      </trkpt>
      <trkpt lat="47.18392" lon="-1.92669">
        <ele>42</ele>
        <time>2023-11-01T13:33:18Z</time>
      </trkpt>
      <trkpt lat="47.18408" lon="-1.92658">
        <ele>41</ele>
        <time>2023-11-01T13:33:42Z</time>
      </trkpt>
      <trkpt lat="47.18429" lon="-1.92642">
        <ele>41</ele>
        <time>2023-11-01T13:34:13Z</time>
      </trkpt>
      <trkpt lat="47.1845" lon="-1.92629">
        <ele>41</ele>
        <time>2023-11-01T13:34:44Z</time>
      </trkpt>
      <trkpt lat="47.18474" lon="-1.92624">
        <ele>40</ele>
        <time>2023-11-01T13:35:16Z</time>
      </trkpt>
      <trkpt lat="47.18492" lon="-1.9262">
        <ele>40</ele>
        <time>2023-11-01T13:35:40Z</time>
      </trkpt>
      <trkpt lat="47.18513" lon="-1.92612">
        <ele>40</ele>
        <time>2023-11-01T13:36:09Z</time>
      </trkpt>
      <trkpt lat="47.18532" lon="-1.92607">
        <ele>40</ele>
        <time>2023-11-01T13:36:35Z</time>
      </trkpt>
      <trkpt lat="47.18554" lon="-1.92602">
        <ele>39</ele>
        <time>2023-11-01T13:37:05Z</time>
      </trkpt>
      <trkpt lat="47.18574" lon="-1.92587">
        <ele>39</ele>
        <time>2023-11-01T13:37:35Z</time>
      </trkpt>
      <trkpt lat="47.18591" lon="-1.92575">
        <ele>39</ele>
        <time>2023-11-01T13:38:00Z</time>
      </trkpt>
      <trkpt lat="47.18611" lon="-1.92564">
        <ele>38</ele>
        <time>2023-11-01T13:38:28Z</time>
      </trkpt>
      <trkpt lat="47.18632" lon="-1.92557">
        <ele>38</ele>
        <time>2023-11-01T13:38:57Z</time>
      </trkpt>
      <trkpt lat="47.18654" lon="-1.92549">
        <ele>38</ele>
        <time>2023-11-01T13:39:27Z</time>
      </trkpt>
      <trkpt lat="47.18675" lon="-1.92543">
        <ele>38</ele>
        <time>2023-11-01T13:39:56Z</time>
      </trkpt>
      <trkpt lat="47.18698" lon="-1.92537">
        <ele>38</ele>
        <time>2023-11-01T13:40:27Z</time>
      </trkpt>
      <trkpt lat="47.18719" lon="-1.92533">
        <ele>38</ele>
        <time>2023-11-01T13:40:55Z</time>
      </trkpt>
      <trkpt lat="47.1876" lon="-1.92527">
        <ele>39</ele>
        <time>2023-11-01T13:41:50Z</time>
      </trkpt>
      <trkpt lat="47.18782" lon="-1.92519">
        <ele>39</ele>
        <time>2023-11-01T13:42:20Z</time>
      </trkpt>
      <trkpt lat="47.18801" lon="-1.9251">
        <ele>39</ele>
        <time>2023-11-01T13:42:47Z</time>
      </trkpt>
      <trkpt lat="47.18822" lon="-1.92499">
        <ele>39</ele>
        <time>2023-11-01T13:43:17Z</time>
      </trkpt>
      <trkpt lat="47.18844" lon="-1.92491">
        <ele>39</ele>
        <time>2023-11-01T13:43:47Z</time>
      </trkpt>
      <trkpt lat="47.18865" lon="-1.92478">
        <ele>39</ele>
        <time>2023-11-01T13:44:18Z</time>
      </trkpt>
      <trkpt lat="47.18888" lon="-1.92466">
        <ele>39</ele>
        <time>2023-11-01T13:44:50Z</time>
      </trkpt>
      <trkpt lat="47.18909" lon="-1.92453">
        <ele>39</ele>
        <time>2023-11-01T13:45:20Z</time>
      </trkpt>
      <trkpt lat="47.18973" lon="-1.92422">
        <ele>37</ele>
        <time>2023-11-01T13:46:50Z</time>
      </trkpt>
      <trkpt lat="47.18991" lon="-1.92414">
        <ele>36</ele>
        <time>2023-11-01T13:47:15Z</time>
      </trkpt>
      <trkpt lat="47.19011" lon="-1.92402">
        <ele>35</ele>
        <time>2023-11-01T13:47:44Z</time>
      </trkpt>
      <trkpt lat="47.1903" lon="-1.92393">
        <ele>35</ele>
        <time>2023-11-01T13:48:11Z</time>
      </trkpt>
      <trkpt lat="47.19049" lon="-1.92385">
        <ele>34</ele>
        <time>2023-11-01T13:48:37Z</time>
      </trkpt>
      <trkpt lat="47.19066" lon="-1.92368">
        <ele>34</ele>
        <time>2023-11-01T13:49:05Z</time>
      </trkpt>
      <trkpt lat="47.19079" lon="-1.92344">
        <ele>34</ele>
        <time>2023-11-01T13:49:33Z</time>
      </trkpt>
      <trkpt lat="47.19092" lon="-1.92325">
        <ele>33</ele>
        <time>2023-11-01T13:49:57Z</time>
      </trkpt>
      <trkpt lat="47.19106" lon="-1.92299">
        <ele>32</ele>
        <time>2023-11-01T13:50:27Z</time>
      </trkpt>
      <trkpt lat="47.19115" lon="-1.92276">
        <ele>31</ele>
        <time>2023-11-01T13:50:51Z</time>
      </trkpt>
      <trkpt lat="47.19129" lon="-1.92253">
        <ele>30</ele>
        <time>2023-11-01T13:51:19Z</time>
      </trkpt>
      <trkpt lat="47.19146" lon="-1.92231">
        <ele>29</ele>
        <time>2023-11-01T13:51:49Z</time>
      </trkpt>
      <trkpt lat="47.19162" lon="-1.92206">
        <ele>28</ele>
        <time>2023-11-01T13:52:21Z</time>
      </trkpt>
      <trkpt lat="47.19181" lon="-1.92189">
        <ele>27</ele>
        <time>2023-11-01T13:52:50Z</time>
      </trkpt>
      <trkpt lat="47.19196" lon="-1.92163">
        <ele>26</ele>
        <time>2023-11-01T13:53:21Z</time>
      </trkpt>
      <trkpt lat="47.19194" lon="-1.92135">
        <ele>26</ele>
        <time>2023-11-01T13:53:47Z</time>
      </trkpt>
      <trkpt lat="47.19184" lon="-1.92103">
        <ele>25</ele>
        <time>2023-11-01T13:54:19Z</time>
      </trkpt>
      <trkpt lat="47.19183" lon="-1.92072">
        <ele>24</ele>
        <time>2023-11-01T13:54:47Z</time>
      </trkpt>
      <trkpt lat="47.19185" lon="-1.9204">
        <ele>23</ele>
        <time>2023-11-01T13:55:16Z</time>
      </trkpt>
      <trkpt lat="47.1918" lon="-1.92014">
        <ele>23</ele>
        <time>2023-11-01T13:55:40Z</time>
      </trkpt>
      <trkpt lat="47.19173" lon="-1.91985">
        <ele>23</ele>
        <time>2023-11-01T13:56:08Z</time>
      </trkpt>
      <trkpt lat="47.19165" lon="-1.91954">
        <ele>24</ele>
        <time>2023-11-01T13:56:38Z</time>
      </trkpt>
      <trkpt lat="47.1916" lon="-1.91926">
        <ele>24</ele>
        <time>2023-11-01T13:57:05Z</time>
      </trkpt>
      <trkpt lat="47.19177" lon="-1.91906">
        <ele>23</ele>
        <time>2023-11-01T13:57:34Z</time>
      </trkpt>
      <trkpt lat="47.19194" lon="-1.91895">
        <ele>22</ele>
        <time>2023-11-01T13:57:58Z</time>
      </trkpt>
      <trkpt lat="47.19213" lon="-1.91879">
        <ele>21</ele>
        <time>2023-11-01T13:58:28Z</time>
      </trkpt>
      <trkpt lat="47.1923" lon="-1.91864">
        <ele>20</ele>
        <time>2023-11-01T13:58:54Z</time>
      </trkpt>
      <trkpt lat="47.19245" lon="-1.9185">
        <ele>19</ele>
        <time>2023-11-01T13:59:18Z</time>
      </trkpt>
      <trkpt lat="47.19258" lon="-1.91828">
        <ele>19</ele>
        <time>2023-11-01T13:59:44Z</time>
      </trkpt>
      <trkpt lat="47.19268" lon="-1.91799">
        <ele>18</ele>
        <time>2023-11-01T14:00:14Z</time>
      </trkpt>
      <trkpt lat="47.19278" lon="-1.91768">
        <ele>17</ele>
        <time>2023-11-01T14:00:45Z</time>
      </trkpt>
      <trkpt lat="47.19281" lon="-1.91736">
        <ele>16</ele>
        <time>2023-11-01T14:01:14Z</time>
      </trkpt>
      <trkpt lat="47.19288" lon="-1.91709">
        <ele>16</ele>
        <time>2023-11-01T14:01:40Z</time>
      </trkpt>
      <trkpt lat="47.19293" lon="-1.91682">
        <ele>15</ele>
        <time>2023-11-01T14:02:06Z</time>
      </trkpt>
      <trkpt lat="47.19305" lon="-1.91657">
        <ele>15</ele>
        <time>2023-11-01T14:02:33Z</time>
      </trkpt>
      <trkpt lat="47.19325" lon="-1.91659">
        <ele>15</ele>
        <time>2023-11-01T14:03:00Z</time>
      </trkpt>
      <trkpt lat="47.19348" lon="-1.91666">
        <ele>15</ele>
        <time>2023-11-01T14:03:32Z</time>
      </trkpt>
      <trkpt lat="47.19363" lon="-1.91646">
        <ele>15</ele>
        <time>2023-11-01T14:03:59Z</time>
      </trkpt>
      <trkpt lat="47.19341" lon="-1.9152">
        <ele>12</ele>
        <time>2023-11-01T14:05:57Z</time>
      </trkpt>
      <trkpt lat="47.19341" lon="-1.91493">
        <ele>12</ele>
        <time>2023-11-01T14:06:21Z</time>
      </trkpt>
      <trkpt lat="47.19331" lon="-1.9147">
        <ele>12</ele>
        <time>2023-11-01T14:06:46Z</time>
      </trkpt>
      <trkpt lat="47.19325" lon="-1.91438">
        <ele>11</ele>
        <time>2023-11-01T14:07:16Z</time>
      </trkpt>
      <trkpt lat="47.19318" lon="-1.91408">
        <ele>11</ele>
        <time>2023-11-01T14:07:45Z</time>
      </trkpt>
      <trkpt lat="47.19309" lon="-1.9138">
        <ele>12</ele>
        <time>2023-11-01T14:08:13Z</time>
      </trkpt>
      <trkpt lat="47.19298" lon="-1.91354">
        <ele>12</ele>
        <time>2023-11-01T14:08:41Z</time>
      </trkpt>
      <trkpt lat="47.19277" lon="-1.91295">
        <ele>12</ele>
        <time>2023-11-01T14:09:41Z</time>
      </trkpt>
      <trkpt lat="47.19266" lon="-1.91267">
        <ele>11</ele>
        <time>2023-11-01T14:10:10Z</time>
      </trkpt>
      <trkpt lat="47.19248" lon="-1.91208">
        <ele>11</ele>
        <time>2023-11-01T14:11:09Z</time>
      </trkpt>
      <trkpt lat="47.19243" lon="-1.91181">
        <ele>11</ele>
        <time>2023-11-01T14:11:34Z</time>
      </trkpt>
      <trkpt lat="47.19233" lon="-1.91156">
        <ele>10</ele>
        <time>2023-11-01T14:12:01Z</time>
      </trkpt>
      <trkpt lat="47.19221" lon="-1.91124">
        <ele>10</ele>
        <time>2023-11-01T14:12:34Z</time>
      </trkpt>
      <trkpt lat="47.19209" lon="-1.91095">
        <ele>10</ele>
        <time>2023-11-01T14:13:05Z</time>
      </trkpt>
      <trkpt lat="47.192" lon="-1.91066">
        <ele>9</ele>
        <time>2023-11-01T14:13:33Z</time>
      </trkpt>
      <trkpt lat="47.19197" lon="-1.91038">
        <ele>10</ele>
        <time>2023-11-01T14:13:59Z</time>
      </trkpt>
      <trkpt lat="47.19199" lon="-1.91003">
        <ele>10</ele>
        <time>2023-11-01T14:14:31Z</time>
      </trkpt>
      <trkpt lat="47.19178" lon="-1.90998">
        <ele>11</ele>
        <time>2023-11-01T14:14:59Z</time>
      </trkpt>
      <trkpt lat="47.1916" lon="-1.90991">
        <ele>12</ele>
        <time>2023-11-01T14:15:24Z</time>
      </trkpt>
      <trkpt lat="47.19139" lon="-1.9099">
        <ele>13</ele>
        <time>2023-11-01T14:15:52Z</time>
      </trkpt>
      <trkpt lat="47.19118" lon="-1.91001">
        <ele>14</ele>
        <time>2023-11-01T14:16:22Z</time>
      </trkpt>
      <trkpt lat="47.19077" lon="-1.91012">
        <ele>16</ele>
        <time>2023-11-01T14:17:18Z</time>
      </trkpt>
      <trkpt lat="47.19054" lon="-1.91018">
        <ele>18</ele>
        <time>2023-11-01T14:17:49Z</time>
      </trkpt>
      <trkpt lat="47.19047" lon="-1.90993">
        <ele>19</ele>
        <time>2023-11-01T14:18:13Z</time>
      </trkpt>
      <trkpt lat="47.19046" lon="-1.90956">
        <ele>19</ele>
        <time>2023-11-01T14:18:47Z</time>
      </trkpt>
      <trkpt lat="47.1903" lon="-1.90936">
        <ele>20</ele>
        <time>2023-11-01T14:19:15Z</time>
      </trkpt>
      <trkpt lat="47.19008" lon="-1.90941">
        <ele>22</ele>
        <time>2023-11-01T14:19:45Z</time>
      </trkpt>
      <trkpt lat="47.18952" lon="-1.90961">
        <ele>27</ele>
        <time>2023-11-01T14:21:02Z</time>
      </trkpt>
      <trkpt lat="47.18932" lon="-1.90967">
        <ele>30</ele>
        <time>2023-11-01T14:21:29Z</time>
      </trkpt>
      <trkpt lat="47.18913" lon="-1.90953">
        <ele>31</ele>
        <time>2023-11-01T14:21:57Z</time>
      </trkpt>
      <trkpt lat="47.18902" lon="-1.90931">
        <ele>31</ele>
        <time>2023-11-01T14:22:22Z</time>
      </trkpt>
      <trkpt lat="47.18885" lon="-1.90916">
        <ele>31</ele>
        <time>2023-11-01T14:22:48Z</time>
      </trkpt>
      <trkpt lat="47.18865" lon="-1.90907">
        <ele>31</ele>
        <time>2023-11-01T14:23:16Z</time>
      </trkpt>
      <trkpt lat="47.18847" lon="-1.90903">
        <ele>32</ele>
        <time>2023-11-01T14:23:41Z</time>
      </trkpt>
      <trkpt lat="47.18822" lon="-1.90896">
        <ele>33</ele>
        <time>2023-11-01T14:24:14Z</time>
      </trkpt>
      <trkpt lat="47.18804" lon="-1.90889">
        <ele>33</ele>
        <time>2023-11-01T14:24:39Z</time>
      </trkpt>
      <trkpt lat="47.18783" lon="-1.9088">
        <ele>34</ele>
        <time>2023-11-01T14:25:09Z</time>
      </trkpt>
      <trkpt lat="47.18766" lon="-1.9086">
        <ele>35</ele>
        <time>2023-11-01T14:25:38Z</time>
      </trkpt>
      <trkpt lat="47.18733" lon="-1.90814">
        <ele>36</ele>
        <time>2023-11-01T14:26:38Z</time>
      </trkpt>
      <trkpt lat="47.18716" lon="-1.90791">
        <ele>37</ele>
        <time>2023-11-01T14:27:09Z</time>
      </trkpt>
      <trkpt lat="47.18703" lon="-1.9077">
        <ele>37</ele>
        <time>2023-11-01T14:27:35Z</time>
      </trkpt>
      <trkpt lat="47.18688" lon="-1.90747">
        <ele>37</ele>
        <time>2023-11-01T14:28:04Z</time>
      </trkpt>
      <trkpt lat="47.18668" lon="-1.90728">
        <ele>37</ele>
        <time>2023-11-01T14:28:35Z</time>
      </trkpt>
      <trkpt lat="47.1865" lon="-1.90711">
        <ele>38</ele>
        <time>2023-11-01T14:29:04Z</time>
      </trkpt>
      <trkpt lat="47.18635" lon="-1.90697">
        <ele>39</ele>
        <time>2023-11-01T14:29:28Z</time>
      </trkpt>
      <trkpt lat="47.18614" lon="-1.90684">
        <ele>40</ele>
        <time>2023-11-01T14:29:58Z</time>
      </trkpt>
      <trkpt lat="47.18592" lon="-1.90668">
        <ele>41</ele>
        <time>2023-11-01T14:30:31Z</time>
      </trkpt>
      <trkpt lat="47.18557" lon="-1.90637">
        <ele>41</ele>
        <time>2023-11-01T14:31:25Z</time>
      </trkpt>
      <trkpt lat="47.18539" lon="-1.90617">
        <ele>41</ele>
        <time>2023-11-01T14:31:56Z</time>
      </trkpt>
      <trkpt lat="47.18523" lon="-1.90594">
        <ele>41</ele>
        <time>2023-11-01T14:32:25Z</time>
      </trkpt>
      <trkpt lat="47.18509" lon="-1.90568">
        <ele>42</ele>
        <time>2023-11-01T14:32:55Z</time>
      </trkpt>
      <trkpt lat="47.18498" lon="-1.90541">
        <ele>44</ele>
        <time>2023-11-01T14:33:24Z</time>
      </trkpt>
      <trkpt lat="47.18484" lon="-1.90519">
        <ele>44</ele>
        <time>2023-11-01T14:33:51Z</time>
      </trkpt>
      <trkpt lat="47.18471" lon="-1.90499">
        <ele>45</ele>
        <time>2023-11-01T14:34:16Z</time>
      </trkpt>
      <trkpt lat="47.18453" lon="-1.90482">
        <ele>45</ele>
        <time>2023-11-01T14:34:45Z</time>
      </trkpt>
      <trkpt lat="47.18433" lon="-1.90469">
        <ele>45</ele>
        <time>2023-11-01T14:35:14Z</time>
      </trkpt>
      <trkpt lat="47.18412" lon="-1.90473">
        <ele>45</ele>
        <time>2023-11-01T14:35:42Z</time>
      </trkpt>
      <trkpt lat="47.18368" lon="-1.9049">
        <ele>46</ele>
        <time>2023-11-01T14:36:43Z</time>
      </trkpt>
      <trkpt lat="47.18346" lon="-1.90502">
        <ele>46</ele>
        <time>2023-11-01T14:37:14Z</time>
      </trkpt>
      <trkpt lat="47.18328" lon="-1.90516">
        <ele>47</ele>
        <time>2023-11-01T14:37:42Z</time>
      </trkpt>
      <trkpt lat="47.1831" lon="-1.90536">
        <ele>47</ele>
        <time>2023-11-01T14:38:12Z</time>
      </trkpt>
      <trkpt lat="47.18295" lon="-1.90552">
        <ele>48</ele>
        <time>2023-11-01T14:38:36Z</time>
      </trkpt>
      <trkpt lat="47.18275" lon="-1.9057">
        <ele>48</ele>
        <time>2023-11-01T14:39:08Z</time>
      </trkpt>
      <trkpt lat="47.18257" lon="-1.90582">
        <ele>49</ele>
        <time>2023-11-01T14:39:34Z</time>
      </trkpt>
      <trkpt lat="47.18176" lon="-1.90613">
        <ele>52</ele>
        <time>2023-11-01T14:41:26Z</time>
      </trkpt>
      <trkpt lat="47.18157" lon="-1.9062">
        <ele>52</ele>
        <time>2023-11-01T14:41:52Z</time>
      </trkpt>
      <trkpt lat="47.18116" lon="-1.90641">
        <ele>52</ele>
        <time>2023-11-01T14:42:50Z</time>
      </trkpt>
      <trkpt lat="47.18098" lon="-1.9065">
        <ele>52</ele>
        <time>2023-11-01T14:43:15Z</time>
      </trkpt>
      <trkpt lat="47.18077" lon="-1.90668">
        <ele>52</ele>
        <time>2023-11-01T14:43:48Z</time>
      </trkpt>
      <trkpt lat="47.18057" lon="-1.90687">
        <ele>52</ele>
        <time>2023-11-01T14:44:19Z</time>
      </trkpt>
      <trkpt lat="47.18042" lon="-1.90703">
        <ele>52</ele>
        <time>2023-11-01T14:44:44Z</time>
      </trkpt>
      <trkpt lat="47.18022" lon="-1.90722">
        <ele>52</ele>
        <time>2023-11-01T14:45:16Z</time>
      </trkpt>
      <trkpt lat="47.18004" lon="-1.90745">
        <ele>52</ele>
        <time>2023-11-01T14:45:48Z</time>
      </trkpt>
      <trkpt lat="47.1799" lon="-1.90762">
        <ele>52</ele>
        <time>2023-11-01T14:46:12Z</time>
      </trkpt>
      <trkpt lat="47.18002" lon="-1.90785">
        <ele>52</ele>
        <time>2023-11-01T14:46:38Z</time>
      </trkpt>
      <trkpt lat="47.18022" lon="-1.90798">
        <ele>51</ele>
        <time>2023-11-01T14:47:07Z</time>
      </trkpt>
      <trkpt lat="47.18042" lon="-1.90814">
        <ele>51</ele>
        <time>2023-11-01T14:47:38Z</time>
      </trkpt>
      <trkpt lat="47.18059" lon="-1.90826">
        <ele>50</ele>
        <time>2023-11-01T14:48:03Z</time>
      </trkpt>
      <trkpt lat="47.18075" lon="-1.90837">
        <ele>50</ele>
        <time>2023-11-01T14:48:27Z</time>
      </trkpt>
      <trkpt lat="47.18093" lon="-1.90849">
        <ele>49</ele>
        <time>2023-11-01T14:48:53Z</time>
      </trkpt>
      <trkpt lat="47.18111" lon="-1.90865">
        <ele>48</ele>
        <time>2023-11-01T14:49:21Z</time>
      </trkpt>
      <trkpt lat="47.18128" lon="-1.90878">
        <ele>46</ele>
        <time>2023-11-01T14:49:47Z</time>
      </trkpt>
      <trkpt lat="47.18145" lon="-1.90897">
        <ele>45</ele>
        <time>2023-11-01T14:50:15Z</time>
      </trkpt>
      <trkpt lat="47.18163" lon="-1.90913">
        <ele>43</ele>
        <time>2023-11-01T14:50:43Z</time>
      </trkpt>
      <trkpt lat="47.18182" lon="-1.90932">
        <ele>41</ele>
        <time>2023-11-01T14:51:14Z</time>
      </trkpt>
      <trkpt lat="47.18197" lon="-1.90946">
        <ele>40</ele>
        <time>2023-11-01T14:51:37Z</time>
      </trkpt>
      <trkpt lat="47.18192" lon="-1.90977">
        <ele>39</ele>
        <time>2023-11-01T14:52:06Z</time>
      </trkpt>
      <trkpt lat="47.1817" lon="-1.90973">
        <ele>41</ele>
        <time>2023-11-01T14:52:36Z</time>
      </trkpt>
      <trkpt lat="47.18149" lon="-1.9096">
        <ele>43</ele>
        <time>2023-11-01T14:53:06Z</time>
      </trkpt>
      <trkpt lat="47.1813" lon="-1.90948">
        <ele>44</ele>
        <time>2023-11-01T14:53:34Z</time>
      </trkpt>
      <trkpt lat="47.18119" lon="-1.90974">
        <ele>44</ele>
        <time>2023-11-01T14:54:02Z</time>
      </trkpt>
      <trkpt lat="47.1811" lon="-1.91005">
        <ele>44</ele>
        <time>2023-11-01T14:54:32Z</time>
      </trkpt>
      <trkpt lat="47.18102" lon="-1.91038">
        <ele>43</ele>
        <time>2023-11-01T14:55:04Z</time>
      </trkpt>
      <trkpt lat="47.18094" lon="-1.91068">
        <ele>43</ele>
        <time>2023-11-01T14:55:33Z</time>
      </trkpt>
      <trkpt lat="47.18088" lon="-1.91094">
        <ele>43</ele>
        <time>2023-11-01T14:55:58Z</time>
      </trkpt>
      <trkpt lat="47.18082" lon="-1.91121">
        <ele>43</ele>
        <time>2023-11-01T14:56:24Z</time>
      </trkpt>
      <trkpt lat="47.18073" lon="-1.91146">
        <ele>43</ele>
        <time>2023-11-01T14:56:50Z</time>
      </trkpt>
      <trkpt lat="47.18068" lon="-1.91173">
        <ele>42</ele>
        <time>2023-11-01T14:57:15Z</time>
      </trkpt>
      <trkpt lat="47.1806" lon="-1.912">
        <ele>42</ele>
        <time>2023-11-01T14:57:42Z</time>
      </trkpt>
      <trkpt lat="47.18053" lon="-1.91229">
        <ele>42</ele>
        <time>2023-11-01T14:58:10Z</time>
      </trkpt>
      <trkpt lat="47.18032" lon="-1.91224">
        <ele>43</ele>
        <time>2023-11-01T14:58:38Z</time>
      </trkpt>
      <trkpt lat="47.18013" lon="-1.91206">
        <ele>43</ele>
        <time>2023-11-01T14:59:08Z</time>
      </trkpt>
      <trkpt lat="47.17996" lon="-1.91183">
        <ele>44</ele>
        <time>2023-11-01T14:59:39Z</time>
      </trkpt>
      <trkpt lat="47.1797" lon="-1.9114">
        <ele>44</ele>
        <time>2023-11-01T15:00:31Z</time>
      </trkpt>
      <trkpt lat="47.17949" lon="-1.9114">
        <ele>43</ele>
        <time>2023-11-01T15:00:59Z</time>
      </trkpt>
      <trkpt lat="47.17931" lon="-1.91153">
        <ele>41</ele>
        <time>2023-11-01T15:01:26Z</time>
      </trkpt>
      <trkpt lat="47.17894" lon="-1.91184">
        <ele>39</ele>
        <time>2023-11-01T15:02:23Z</time>
      </trkpt>
      <trkpt lat="47.17878" lon="-1.91201">
        <ele>38</ele>
        <time>2023-11-01T15:02:49Z</time>
      </trkpt>
      <trkpt lat="47.17872" lon="-1.91228">
        <ele>37</ele>
        <time>2023-11-01T15:03:15Z</time>
      </trkpt>
      <trkpt lat="47.17862" lon="-1.91254">
        <ele>36</ele>
        <time>2023-11-01T15:03:42Z</time>
      </trkpt>
      <trkpt lat="47.17859" lon="-1.91281">
        <ele>35</ele>
        <time>2023-11-01T15:04:07Z</time>
      </trkpt>
      <trkpt lat="47.17837" lon="-1.91295">
        <ele>34</ele>
        <time>2023-11-01T15:04:39Z</time>
      </trkpt>
      <trkpt lat="47.17814" lon="-1.91296">
        <ele>34</ele>
        <time>2023-11-01T15:05:09Z</time>
      </trkpt>
      <trkpt lat="47.17795" lon="-1.91291">
        <ele>34</ele>
        <time>2023-11-01T15:05:35Z</time>
      </trkpt>
      <trkpt lat="47.17778" lon="-1.91279">
        <ele>35</ele>
        <time>2023-11-01T15:06:00Z</time>
      </trkpt>
      <trkpt lat="47.17756" lon="-1.91273">
        <ele>35</ele>
        <time>2023-11-01T15:06:30Z</time>
      </trkpt>
      <trkpt lat="47.17738" lon="-1.91271">
        <ele>36</ele>
        <time>2023-11-01T15:06:54Z</time>
      </trkpt>
      <trkpt lat="47.17717" lon="-1.91268">
        <ele>37</ele>
        <time>2023-11-01T15:07:23Z</time>
      </trkpt>
      <trkpt lat="47.17695" lon="-1.91255">
        <ele>39</ele>
        <time>2023-11-01T15:07:54Z</time>
      </trkpt>
      <trkpt lat="47.17673" lon="-1.91249">
        <ele>41</ele>
        <time>2023-11-01T15:08:24Z</time>
      </trkpt>
      <trkpt lat="47.17652" lon="-1.91238">
        <ele>42</ele>
        <time>2023-11-01T15:08:54Z</time>
      </trkpt>
      <trkpt lat="47.17635" lon="-1.9123">
        <ele>43</ele>
        <time>2023-11-01T15:09:18Z</time>
      </trkpt>
      <trkpt lat="47.17627" lon="-1.91201">
        <ele>44</ele>
        <time>2023-11-01T15:09:46Z</time>
      </trkpt>
      <trkpt lat="47.17626" lon="-1.9117">
        <ele>46</ele>
        <time>2023-11-01T15:10:14Z</time>
      </trkpt>
      <trkpt lat="47.17627" lon="-1.91138">
        <ele>46</ele>
        <time>2023-11-01T15:10:43Z</time>
      </trkpt>
      <trkpt lat="47.17618" lon="-1.91106">
        <ele>48</ele>
        <time>2023-11-01T15:11:15Z</time>
      </trkpt>
      <trkpt lat="47.17607" lon="-1.91076">
        <ele>49</ele>
        <time>2023-11-01T15:11:46Z</time>
      </trkpt>
      <trkpt lat="47.17601" lon="-1.91049">
        <ele>49</ele>
        <time>2023-11-01T15:12:11Z</time>
      </trkpt>
      <trkpt lat="47.17582" lon="-1.90993">
        <ele>50</ele>
        <time>2023-11-01T15:13:08Z</time>
      </trkpt>
      <trkpt lat="47.17573" lon="-1.9097">
        <ele>51</ele>
        <time>2023-11-01T15:13:32Z</time>
      </trkpt>
      <trkpt lat="47.17551" lon="-1.90974">
        <ele>51</ele>
        <time>2023-11-01T15:14:02Z</time>
      </trkpt>
      <trkpt lat="47.17529" lon="-1.90988">
        <ele>50</ele>
        <time>2023-11-01T15:14:34Z</time>
      </trkpt>
      <trkpt lat="47.1751" lon="-1.90989">
        <ele>50</ele>
        <time>2023-11-01T15:14:59Z</time>
      </trkpt>
      <trkpt lat="47.17489" lon="-1.90984">
        <ele>51</ele>
        <time>2023-11-01T15:15:27Z</time>
      </trkpt>
      <trkpt lat="47.17468" lon="-1.90988">
        <ele>52</ele>
        <time>2023-11-01T15:15:56Z</time>
      </trkpt>
      <trkpt lat="47.17449" lon="-1.91006">
        <ele>52</ele>
        <time>2023-11-01T15:16:26Z</time>
      </trkpt>
      <trkpt lat="47.17442" lon="-1.91034">
        <ele>53</ele>
        <time>2023-11-01T15:16:53Z</time>
      </trkpt>
      <trkpt lat="47.17439" lon="-1.91067">
        <ele>52</ele>
        <time>2023-11-01T15:17:23Z</time>
      </trkpt>
      <trkpt lat="47.17421" lon="-1.91087">
        <ele>53</ele>
        <time>2023-11-01T15:17:53Z</time>
      </trkpt>
      <trkpt lat="47.17398" lon="-1.91087">
        <ele>53</ele>
        <time>2023-11-01T15:18:24Z</time>
      </trkpt>
      <trkpt lat="47.1738" lon="-1.91089">
        <ele>54</ele>
        <time>2023-11-01T15:18:48Z</time>
      </trkpt>
      <trkpt lat="47.17356" lon="-1.91096">
        <ele>54</ele>
        <time>2023-11-01T15:19:21Z</time>
      </trkpt>
      <trkpt lat="47.17335" lon="-1.91108">
        <ele>54</ele>
        <time>2023-11-01T15:19:51Z</time>
      </trkpt>
      <trkpt lat="47.17311" lon="-1.91114">
        <ele>54</ele>
        <time>2023-11-01T15:20:23Z</time>
      </trkpt>
      <trkpt lat="47.17289" lon="-1.9112">
        <ele>54</ele>
        <time>2023-11-01T15:20:53Z</time>
      </trkpt>
      <trkpt lat="47.17293" lon="-1.91146">
        <ele>54</ele>
        <time>2023-11-01T15:21:17Z</time>
      </trkpt>
      <trkpt lat="47.17301" lon="-1.91174">
        <ele>53</ele>
        <time>2023-11-01T15:21:45Z</time>
      </trkpt>
      <trkpt lat="47.17309" lon="-1.91198">
        <ele>53</ele>
        <time>2023-11-01T15:22:09Z</time>
      </trkpt>
      <trkpt lat="47.1732" lon="-1.91224">
        <ele>52</ele>
        <time>2023-11-01T15:22:37Z</time>
      </trkpt>
      <trkpt lat="47.17334" lon="-1.9125">
        <ele>51</ele>
        <time>2023-11-01T15:23:07Z</time>
      </trkpt>
      <trkpt lat="47.17347" lon="-1.91278">
        <ele>51</ele>
        <time>2023-11-01T15:23:38Z</time>
      </trkpt>
      <trkpt lat="47.17353" lon="-1.9131">
        <ele>50</ele>
        <time>2023-11-01T15:24:08Z</time>
      </trkpt>
      <trkpt lat="47.17357" lon="-1.91346">
        <ele>49</ele>
        <time>2023-11-01T15:24:41Z</time>
      </trkpt>
      <trkpt lat="47.17364" lon="-1.91371">
        <ele>49</ele>
        <time>2023-11-01T15:25:05Z</time>
      </trkpt>
      <trkpt lat="47.17364" lon="-1.91402">
        <ele>49</ele>
        <time>2023-11-01T15:25:34Z</time>
      </trkpt>
      <trkpt lat="47.17369" lon="-1.91431">
        <ele>48</ele>
        <time>2023-11-01T15:26:01Z</time>
      </trkpt>
      <trkpt lat="47.17373" lon="-1.9146">
        <ele>47</ele>
        <time>2023-11-01T15:26:28Z</time>
      </trkpt>
      <trkpt lat="47.17373" lon="-1.91488">
        <ele>47</ele>
        <time>2023-11-01T15:26:53Z</time>
      </trkpt>
      <trkpt lat="47.17389" lon="-1.91506">
        <ele>46</ele>
        <time>2023-11-01T15:27:20Z</time>
      </trkpt>
      <trkpt lat="47.17404" lon="-1.91521">
        <ele>46</ele>
        <time>2023-11-01T15:27:44Z</time>
      </trkpt>
      <trkpt lat="47.17407" lon="-1.91548">
        <ele>45</ele>
        <time>2023-11-01T15:28:09Z</time>
      </trkpt>
      <trkpt lat="47.1741" lon="-1.91577">
        <ele>44</ele>
        <time>2023-11-01T15:28:35Z</time>
      </trkpt>
      <trkpt lat="47.17409" lon="-1.91608">
        <ele>43</ele>
        <time>2023-11-01T15:29:04Z</time>
      </trkpt>
      <trkpt lat="47.17408" lon="-1.91636">
        <ele>42</ele>
        <time>2023-11-01T15:29:29Z</time>
      </trkpt>
      <trkpt lat="47.17413" lon="-1.9167">
        <ele>40</ele>
        <time>2023-11-01T15:30:01Z</time>
      </trkpt>
      <trkpt lat="47.17413" lon="-1.91698">
        <ele>40</ele>
        <time>2023-11-01T15:30:26Z</time>
      </trkpt>
      <trkpt lat="47.17393" lon="-1.91697">
        <ele>41</ele>
        <time>2023-11-01T15:30:53Z</time>
      </trkpt>
      <trkpt lat="47.17375" lon="-1.91699">
        <ele>42</ele>
        <time>2023-11-01T15:31:17Z</time>
      </trkpt>
      <trkpt lat="47.17368" lon="-1.91729">
        <ele>42</ele>
        <time>2023-11-01T15:31:46Z</time>
      </trkpt>
      <trkpt lat="47.17356" lon="-1.91758">
        <ele>43</ele>
        <time>2023-11-01T15:32:16Z</time>
      </trkpt>
      <trkpt lat="47.17348" lon="-1.91784">
        <ele>44</ele>
        <time>2023-11-01T15:32:42Z</time>
      </trkpt>
      <trkpt lat="47.17324" lon="-1.91788">
        <ele>45</ele>
        <time>2023-11-01T15:33:14Z</time>
      </trkpt>
      <trkpt lat="47.17316" lon="-1.91815">
        <ele>46</ele>
        <time>2023-11-01T15:33:41Z</time>
      </trkpt>
      <trkpt lat="47.17317" lon="-1.91915">
        <ele>47</ele>
        <time>2023-11-01T15:35:12Z</time>
      </trkpt>
      <trkpt lat="47.17316" lon="-1.91947">
        <ele>46</ele>
        <time>2023-11-01T15:35:41Z</time>
      </trkpt>
      <trkpt lat="47.17327" lon="-1.92006">
        <ele>44</ele>
        <time>2023-11-01T15:36:36Z</time>
      </trkpt>
      <trkpt lat="47.17335" lon="-1.92037">
        <ele>43</ele>
        <time>2023-11-01T15:37:07Z</time>
      </trkpt>
      <trkpt lat="47.17339" lon="-1.9207">
        <ele>43</ele>
        <time>2023-11-01T15:37:37Z</time>
      </trkpt>
      <trkpt lat="47.17343" lon="-1.92104">
        <ele>42</ele>
        <time>2023-11-01T15:38:08Z</time>
      </trkpt>
      <trkpt lat="47.17333" lon="-1.92126">
        <ele>42</ele>
        <time>2023-11-01T15:38:32Z</time>
      </trkpt>
      <trkpt lat="47.17317" lon="-1.92151">
        <ele>42</ele>
        <time>2023-11-01T15:39:03Z</time>
      </trkpt>
      <trkpt lat="47.17321" lon="-1.92179">
        <ele>42</ele>
        <time>2023-11-01T15:39:29Z</time>
      </trkpt>
      <trkpt lat="47.17334" lon="-1.92206">
        <ele>42</ele>
        <time>2023-11-01T15:39:59Z</time>
      </trkpt>
      <trkpt lat="47.1735" lon="-1.92222">
        <ele>42</ele>
        <time>2023-11-01T15:40:25Z</time>
      </trkpt>
      <trkpt lat="47.17358" lon="-1.92246">
        <ele>42</ele>
        <time>2023-11-01T15:40:49Z</time>
      </trkpt>
      <trkpt lat="47.1737" lon="-1.92272">
        <ele>43</ele>
        <time>2023-11-01T15:41:18Z</time>
      </trkpt>
      <trkpt lat="47.17399" lon="-1.92323">
        <ele>43</ele>
        <time>2023-11-01T15:42:18Z</time>
      </trkpt>
      <trkpt lat="47.17413" lon="-1.92348">
        <ele>43</ele>
        <time>2023-11-01T15:42:48Z</time>
      </trkpt>
      <trkpt lat="47.17426" lon="-1.92372">
        <ele>44</ele>
        <time>2023-11-01T15:43:15Z</time>
      </trkpt>
      <trkpt lat="47.17441" lon="-1.92397">
        <ele>44</ele>
        <time>2023-11-01T15:43:46Z</time>
      </trkpt>
      <trkpt lat="47.17439" lon="-1.92426">
        <ele>45</ele>
        <time>2023-11-01T15:44:12Z</time>
      </trkpt>
      <trkpt lat="47.17425" lon="-1.9245">
        <ele>45</ele>
        <time>2023-11-01T15:44:41Z</time>
      </trkpt>
      <trkpt lat="47.17385" lon="-1.92527">
        <ele>45</ele>
        <time>2023-11-01T15:46:09Z</time>
      </trkpt>
      <trkpt lat="47.17373" lon="-1.92553">
        <ele>45</ele>
        <time>2023-11-01T15:46:37Z</time>
      </trkpt>
      <trkpt lat="47.17358" lon="-1.92575">
        <ele>45</ele>
        <time>2023-11-01T15:47:06Z</time>
      </trkpt>
      <trkpt lat="47.17347" lon="-1.92603">
        <ele>46</ele>
        <time>2023-11-01T15:47:35Z</time>
      </trkpt>
      <trkpt lat="47.1733" lon="-1.92627">
        <ele>46</ele>
        <time>2023-11-01T15:48:06Z</time>
      </trkpt>
      <trkpt lat="47.17318" lon="-1.92653">
        <ele>46</ele>
        <time>2023-11-01T15:48:35Z</time>
      </trkpt>
      <trkpt lat="47.17306" lon="-1.9268">
        <ele>47</ele>
        <time>2023-11-01T15:49:04Z</time>
      </trkpt>
      <trkpt lat="47.17298" lon="-1.92707">
        <ele>48</ele>
        <time>2023-11-01T15:49:31Z</time>
      </trkpt>
      <trkpt lat="47.17287" lon="-1.92734">
        <ele>48</ele>
        <time>2023-11-01T15:49:59Z</time>
      </trkpt>
      <trkpt lat="47.17275" lon="-1.92753">
        <ele>48</ele>
        <time>2023-11-01T15:50:23Z</time>
      </trkpt>
      <trkpt lat="47.17264" lon="-1.92783">
        <ele>48</ele>
        <time>2023-11-01T15:50:54Z</time>
      </trkpt>
      <trkpt lat="47.17258" lon="-1.92811">
        <ele>49</ele>
        <time>2023-11-01T15:51:20Z</time>
      </trkpt>
      <trkpt lat="47.17246" lon="-1.9284">
        <ele>49</ele>
        <time>2023-11-01T15:51:51Z</time>
      </trkpt>
      <trkpt lat="47.17237" lon="-1.92866">
        <ele>50</ele>
        <time>2023-11-01T15:52:18Z</time>
      </trkpt>
      <trkpt lat="47.17243" lon="-1.92893">
        <ele>51</ele>
        <time>2023-11-01T15:52:43Z</time>
      </trkpt>
      <trkpt lat="47.17255" lon="-1.92922">
        <ele>52</ele>
        <time>2023-11-01T15:53:14Z</time>
      </trkpt>
      <trkpt lat="47.17271" lon="-1.92947">
        <ele>52</ele>
        <time>2023-11-01T15:53:45Z</time>
      </trkpt>
      <trkpt lat="47.17281" lon="-1.9297">
        <ele>53</ele>
        <time>2023-11-01T15:54:10Z</time>
      </trkpt>
      <trkpt lat="47.17292" lon="-1.92995">
        <ele>53</ele>
        <time>2023-11-01T15:54:37Z</time>
      </trkpt>
      <trkpt lat="47.17303" lon="-1.93025">
        <ele>54</ele>
        <time>2023-11-01T15:55:08Z</time>
      </trkpt>
      <trkpt lat="47.17308" lon="-1.93051">
        <ele>54</ele>
        <time>2023-11-01T15:55:33Z</time>
      </trkpt>
      <trkpt lat="47.17312" lon="-1.9308">
        <ele>54</ele>
        <time>2023-11-01T15:55:59Z</time>
      </trkpt>
      <trkpt lat="47.17317" lon="-1.9311">
        <ele>55</ele>
        <time>2023-11-01T15:56:28Z</time>
      </trkpt>
      <trkpt lat="47.17319" lon="-1.93138">
        <ele>55</ele>
        <time>2023-11-01T15:56:53Z</time>
      </trkpt>
      <trkpt lat="47.17325" lon="-1.93171">
        <ele>55</ele>
        <time>2023-11-01T15:57:24Z</time>
      </trkpt>
      <trkpt lat="47.17328" lon="-1.93204">
        <ele>54</ele>
        <time>2023-11-01T15:57:54Z</time>
      </trkpt>
      <trkpt lat="47.17328" lon="-1.93232">
        <ele>53</ele>
        <time>2023-11-01T15:58:20Z</time>
      </trkpt>
      <trkpt lat="47.17332" lon="-1.93258">
        <ele>52</ele>
        <time>2023-11-01T15:58:44Z</time>
      </trkpt>
      <trkpt lat="47.17334" lon="-1.93291">
        <ele>51</ele>
        <time>2023-11-01T15:59:14Z</time>
      </trkpt>
      <trkpt lat="47.17339" lon="-1.93324">
        <ele>50</ele>
        <time>2023-11-01T15:59:45Z</time>
      </trkpt>
      <trkpt lat="47.1734" lon="-1.93358">
        <ele>50</ele>
        <time>2023-11-01T16:00:15Z</time>
      </trkpt>
      <trkpt lat="47.17338" lon="-1.93388">
        <ele>49</ele>
        <time>2023-11-01T16:00:43Z</time>
      </trkpt>
      <trkpt lat="47.1741" lon="-1.93436">
        <ele>49</ele>
        <time>2023-11-01T16:02:28Z</time>
      </trkpt>
      <trkpt lat="47.17375" lon="-1.93413">
        <ele>49</ele>
        <time>2023-11-01T16:03:19Z</time>
      </trkpt>
      <trkpt lat="47.17357" lon="-1.93408">
        <ele>49</ele>
        <time>2023-11-01T16:03:44Z</time>
      </trkpt>
      <trkpt lat="47.17347" lon="-1.93433">
        <ele>49</ele>
        <time>2023-11-01T16:04:10Z</time>
      </trkpt>
      <trkpt lat="47.17355" lon="-1.93463">
        <ele>48</ele>
        <time>2023-11-01T16:04:39Z</time>
      </trkpt>
      <trkpt lat="47.17362" lon="-1.93489">
        <ele>48</ele>
        <time>2023-11-01T16:05:05Z</time>
      </trkpt>
      <trkpt lat="47.17368" lon="-1.93522">
        <ele>48</ele>
        <time>2023-11-01T16:05:36Z</time>
      </trkpt>
      <trkpt lat="47.17377" lon="-1.93553">
        <ele>47</ele>
        <time>2023-11-01T16:06:06Z</time>
      </trkpt>
      <trkpt lat="47.1738" lon="-1.93583">
        <ele>47</ele>
        <time>2023-11-01T16:06:34Z</time>
      </trkpt>
      <trkpt lat="47.17401" lon="-1.93637">
        <ele>46</ele>
        <time>2023-11-01T16:07:30Z</time>
      </trkpt>
      <trkpt lat="47.17412" lon="-1.93662">
        <ele>45</ele>
        <time>2023-11-01T16:07:57Z</time>
      </trkpt>
      <trkpt lat="47.17439" lon="-1.93708">
        <ele>44</ele>
        <time>2023-11-01T16:08:52Z</time>
      </trkpt>
      <trkpt lat="47.17452" lon="-1.93731">
        <ele>43</ele>
        <time>2023-11-01T16:09:20Z</time>
      </trkpt>
      <trkpt lat="47.17462" lon="-1.93755">
        <ele>42</ele>
        <time>2023-11-01T16:09:45Z</time>
      </trkpt>
      <trkpt lat="47.17484" lon="-1.93813">
        <ele>41</ele>
        <time>2023-11-01T16:10:45Z</time>
      </trkpt>
      <trkpt lat="47.17493" lon="-1.93844">
        <ele>40</ele>
        <time>2023-11-01T16:11:16Z</time>
      </trkpt>
      <trkpt lat="47.17495" lon="-1.93873">
        <ele>41</ele>
        <time>2023-11-01T16:11:42Z</time>
      </trkpt>
      <trkpt lat="47.17498" lon="-1.93905">
        <ele>41</ele>
        <time>2023-11-01T16:12:12Z</time>
      </trkpt>
      <trkpt lat="47.17498" lon="-1.93967">
        <ele>43</ele>
        <time>2023-11-01T16:13:08Z</time>
      </trkpt>
      <trkpt lat="47.17501" lon="-1.94">
        <ele>44</ele>
        <time>2023-11-01T16:13:38Z</time>
      </trkpt>
      <trkpt lat="47.17507" lon="-1.94026">
        <ele>44</ele>
        <time>2023-11-01T16:14:03Z</time>
      </trkpt>
      <trkpt lat="47.17511" lon="-1.94059">
        <ele>45</ele>
        <time>2023-11-01T16:14:33Z</time>
      </trkpt>
      <trkpt lat="47.17517" lon="-1.94091">
        <ele>46</ele>
        <time>2023-11-01T16:15:04Z</time>
      </trkpt>
      <trkpt lat="47.17523" lon="-1.94118">
        <ele>46</ele>
        <time>2023-11-01T16:15:29Z</time>
      </trkpt>
      <trkpt lat="47.17525" lon="-1.94146">
        <ele>47</ele>
        <time>2023-11-01T16:15:55Z</time>
      </trkpt>
      <trkpt lat="47.17535" lon="-1.94177">
        <ele>47</ele>
        <time>2023-11-01T16:16:26Z</time>
      </trkpt>
      <trkpt lat="47.1766" lon="-1.94445">
        <ele>49</ele>
        <time>2023-11-01T16:21:21Z</time>
      </trkpt>
      <trkpt lat="47.1731" lon="-1.94772">
        <ele>53</ele>
        <time>2023-11-01T16:30:34Z</time>
      </trkpt>
      <trkpt lat="47.17154" lon="-1.94889">
        <ele>57</ele>
        <time>2023-11-01T16:34:28Z</time>
      </trkpt>
      <trkpt lat="47.17029" lon="-1.95241">
        <ele>50</ele>
        <time>2023-11-01T16:40:28Z</time>
      </trkpt>
      <trkpt lat="47.16956" lon="-1.95155">
        <ele>49</ele>
        <time>2023-11-01T16:42:33Z</time>
      </trkpt>
      <trkpt lat="47.16508" lon="-1.95292">
        <ele>44</ele>
        <time>2023-11-01T16:52:43Z</time>
      </trkpt>
      <trkpt lat="47.16317" lon="-1.94947">
        <ele>48</ele>
        <time>2023-11-01T16:59:27Z</time>
      </trkpt>
      <trkpt lat="47.16101" lon="-1.94801">
        <ele>45</ele>
        <time>2023-11-01T17:04:44Z</time>
      </trkpt>
      <trkpt lat="47.15909" lon="-1.9488">
        <ele>42</ele>
        <time>2023-11-01T17:09:10Z</time>
      </trkpt>
      <trkpt lat="47.15863" lon="-1.94956">
        <ele>41</ele>
        <time>2023-11-01T17:10:43Z</time>
      </trkpt>
      <trkpt lat="47.15599" lon="-1.94828">
        <ele>37</ele>
        <time>2023-11-01T17:16:54Z</time>
      </trkpt>
      <trkpt lat="47.15294" lon="-1.95042">
        <ele>32</ele>
        <time>2023-11-01T17:24:25Z</time>
      </trkpt>
      <trkpt lat="47.1512" lon="-1.95068">
        <ele>31</ele>
        <time>2023-11-01T17:28:18Z</time>
      </trkpt>
      <trkpt lat="47.1494" lon="-1.95185">
        <ele>29</ele>
        <time>2023-11-01T17:32:41Z</time>
      </trkpt>
      <trkpt lat="47.15141" lon="-1.95338">
        <ele>32</ele>
        <time>2023-11-01T17:37:43Z</time>
      </trkpt>
      <trkpt lat="47.15315" lon="-1.95364">
        <ele>31</ele>
        <time>2023-11-01T17:41:36Z</time>
      </trkpt>
      <trkpt lat="47.15517" lon="-1.95551">
        <ele>31</ele>
        <time>2023-11-01T17:46:55Z</time>
      </trkpt>
      <trkpt lat="47.15836" lon="-1.95876">
        <ele>35</ele>
        <time>2023-11-01T17:55:33Z</time>
      </trkpt>
      <trkpt lat="47.15988" lon="-1.96099">
        <ele>41</ele>
        <time>2023-11-01T18:00:19Z</time>
      </trkpt>
      <trkpt lat="47.16272" lon="-1.9646">
        <ele>28</ele>
        <time>2023-11-01T18:08:40Z</time>
      </trkpt>
      <trkpt lat="47.16302" lon="-1.96352">
        <ele>28</ele>
        <time>2023-11-01T18:10:26Z</time>
      </trkpt>
      <trkpt lat="47.16498" lon="-1.96359">
        <ele>36</ele>
        <time>2023-11-01T18:14:47Z</time>
      </trkpt>
      <trkpt lat="47.16684" lon="-1.96183">
        <ele>41</ele>
        <time>2023-11-01T18:19:43Z</time>
      </trkpt>
      <trkpt lat="47.16649" lon="-1.95986">
        <ele>33</ele>
        <time>2023-11-01T18:22:47Z</time>
      </trkpt>
      <trkpt lat="47.16947" lon="-1.9596">
        <ele>37</ele>
        <time>2023-11-01T18:29:26Z</time>
      </trkpt>
      <trkpt lat="47.1757" lon="-1.9568">
        <ele>42</ele>
        <time>2023-11-01T18:43:55Z</time>
      </trkpt>
      <trkpt lat="47.17591" lon="-1.95782">
        <ele>44</ele>
        <time>2023-11-01T18:45:32Z</time>
      </trkpt>
      <trkpt lat="47.18302" lon="-1.95365">
        <ele>53</ele>
        <time>2023-11-01T19:02:33Z</time>
      </trkpt>
      <trkpt lat="47.18206" lon="-1.9496">
        <ele>53</ele>
        <time>2023-11-01T19:09:02Z</time>
      </trkpt>
      <trkpt lat="47.18578" lon="-1.94851">
        <ele>37</ele>
        <time>2023-11-01T19:17:28Z</time>
      </trkpt>
      <trkpt lat="47.18681" lon="-1.95104">
        <ele>39</ele>
        <time>2023-11-01T19:21:56Z</time>
      </trkpt>
      <trkpt lat="47.18779" lon="-1.94994">
        <ele>32</ele>
        <time>2023-11-01T19:24:40Z</time>
      </trkpt>
      <trkpt lat="47.18894" lon="-1.94888">
        <ele>22</ele>
        <time>2023-11-01T19:27:41Z</time>
      </trkpt>
      <trkpt lat="47.18853" lon="-1.94767">
        <ele>22</ele>
        <time>2023-11-01T19:29:44Z</time>
      </trkpt>
      <trkpt lat="47.18799" lon="-1.94802">
        <ele>25</ele>
        <time>2023-11-01T19:31:03Z</time>
      </trkpt>
      <trkpt lat="47.18768" lon="-1.94773">
        <ele>26</ele>
        <time>2023-11-01T19:31:52Z</time>
      </trkpt>
      <trkpt lat="47.1875" lon="-1.94784">
        <ele>27</ele>
        <time>2023-11-01T19:32:18Z</time>
      </trkpt>
    </trkseg>
  </trk>
</gpx>